createdAt,value
2018-03-11T00:00:13.573Z,3.1
2018-03-11T00:10:27.726Z,2.4
2018-03-11T00:20:42.099Z,2.8
2018-03-11T00:30:56.919Z,3.5
2018-03-11T00:41:10.448Z,3.7
2018-03-11T00:51:24.200Z,3.4
2018-03-11T01:01:37.788Z,2.1
2018-03-11T01:11:52.041Z,2.8
2018-03-11T01:22:05.890Z,4.8
2018-03-11T01:32:21.149Z,3.4
2018-03-11T01:42:35.123Z,2.5
2018-03-11T01:52:49.485Z,3.4
2018-03-11T02:03:03.489Z,2.5
2018-03-11T02:13:16.727Z,2.6
2018-03-11T02:23:29.956Z,1.5
2018-03-11T02:33:41.212Z,2.2
2018-03-11T02:44:26.117Z,2.6
2018-03-11T02:54:38.384Z,2.0
2018-03-11T03:04:51.835Z,2.5
2018-03-11T03:15:37.404Z,3.3
2018-03-11T03:26:22.592Z,3.7
2018-03-11T03:36:34.554Z,3.0
2018-03-11T03:46:48.779Z,1.8
2018-03-11T03:57:02.690Z,1.8
2018-03-11T04:07:14.673Z,1.8
2018-03-11T04:18:00.190Z,3.3
2018-03-11T04:28:46.102Z,5.8
2018-03-11T04:39:31.165Z,3.0
2018-03-11T04:49:44.776Z,3.2
2018-03-11T04:59:58.801Z,3.4
2018-03-11T05:10:10.340Z,3.6
2018-03-11T05:20:56.184Z,5.7
2018-03-11T05:41:57.433Z,4.6
2018-03-11T05:52:43.640Z,3.5
2018-03-11T06:02:57.322Z,4.4
2018-03-11T06:13:11.591Z,7.6
2018-03-11T06:23:56.683Z,6.7
2018-03-11T06:34:14.136Z,8.0
2018-03-11T06:44:27.678Z,4.7
2018-03-11T06:54:41.798Z,3.0
2018-03-11T07:04:55.164Z,4.4
2018-03-11T07:15:10.495Z,4.3
2018-03-11T07:25:25.113Z,5.0
2018-03-11T07:35:39.365Z,4.3
2018-03-11T07:46:09.565Z,6.8
2018-03-11T07:56:20.727Z,4.8
2018-03-11T08:06:35.611Z,6.8
2018-03-11T08:16:49.570Z,3.3
2018-03-11T08:27:20.052Z,4.3
2018-03-11T08:37:34.142Z,6.3
2018-03-11T08:48:08.460Z,5.2
2018-03-11T08:58:22.589Z,3.8
2018-03-11T09:08:41.074Z,6.4
2018-03-11T09:18:55.468Z,5.2
2018-03-11T09:29:16.767Z,5.4
2018-03-11T09:39:33.371Z,2.7
2018-03-11T09:49:57.802Z,3.6
2018-03-11T10:10:29.631Z,3.0
2018-03-11T10:20:44.024Z,1.7
2018-03-11T10:31:06.681Z,2.6
2018-03-11T10:41:51.797Z,1.9
2018-03-11T10:52:51.650Z,2.2
2018-03-11T11:03:20.337Z,2.0
2018-03-11T11:13:46.880Z,1.1
2018-03-11T11:24:42.121Z,2.3
2018-03-11T11:36:24.044Z,2.8
2018-03-11T11:59:07.516Z,2.3
2018-03-11T12:20:36.500Z,0.8
2018-03-11T12:35:48.577Z,1.0
2018-03-11T12:46:51.648Z,0.9
2018-03-11T12:57:47.937Z,1.4
2018-03-11T13:09:08.788Z,0.6
2018-03-11T14:58:02.267Z,0.9
2018-03-11T15:10:23.640Z,0.9
2018-03-11T15:38:57.023Z,0.8
2018-03-11T15:55:48.705Z,1.1
2018-03-11T16:11:33.080Z,2.5
2018-03-11T16:22:52.215Z,0.7
2018-03-11T16:34:11.336Z,1.1
2018-03-11T16:45:33.085Z,1.2
2018-03-11T16:55:47.482Z,1.1
2018-03-11T17:05:59.446Z,0.6
2018-03-11T17:16:13.624Z,1.1
2018-03-11T17:27:07.895Z,1.0
2018-03-11T17:37:50.034Z,2.2
2018-03-11T18:26:20.421Z,1.8
2018-03-11T18:55:33.490Z,4.0
2018-03-11T19:06:29.986Z,3.0
2018-03-11T19:27:35.302Z,2.0
2018-03-11T19:38:27.162Z,3.4
2018-03-11T19:48:44.411Z,2.3
2018-03-11T20:21:48.660Z,3.7
2018-03-11T20:35:39.249Z,3.8
2018-03-11T21:01:29.620Z,2.1
2018-03-11T21:12:31.005Z,2.9
2018-03-11T21:45:13.054Z,1.3
2018-03-11T21:57:20.427Z,2.9
2018-03-11T22:07:58.065Z,1.7
2018-03-11T22:28:36.779Z,2.7
2018-03-11T22:39:24.525Z,6.6
2018-03-11T22:49:39.236Z,1.3
2018-03-11T22:59:57.288Z,1.6
2018-03-11T23:25:00.356Z,5.2
